Jamestown, KY

10:49 AM CST on December 08, 2016 (GMT -0600)
Bryan (LazyDaze) | | Change Station

Elev 978 ft 36.94 °N, 85.20 °W | Updated 29 seconds ago

Clear
Clear
33.8 °F
Feels Like 27 °F
N
7.6
Wind Variable Wind from WSW
Gusts 9.8 mph

Today
High -- | Low -- °F
--% Chance of Precip.
Yesterday
High -- | Low -- °F
Precip. -- in
Pressure 30.36 in
Visibility 10.0 miles
Clouds Scattered Clouds 3200 ft
Windchill 27 °F
Dew Point 24 °F
Humidity 68%
Rainfall 0.00 in
Snow Depth Not available.
6:41 AM 4:23 PM
Waxing Gibbous, 65% visible
METAR KSME 081635Z AUTO 29009G14KT 10SM SCT032 01/M06 A3036 RMK AO2
Pressure 30.36 in
Visibility 10.0 miles
Clouds Scattered Clouds 3200 ft
Windchill 27 °F
Dew Point 24 °F
Humidity 68%
Rainfall 0.00 in
Snow Depth Not available.
6:41 AM 4:23 PM
Waxing Gibbous, 65% visible
METAR KSME 081635Z AUTO 29009G14KT 10SM SCT032 01/M06 A3036 RMK AO2

10-Day Weather Forecast

Almanac

Astronomy

Dec. 08, 2016 Rise Set
Actual Time
Civil Twilight
Nautical Twilight
Astronomical Twilight
Moon
Length of Visible Light
Length of Day
Tomorrow will be .
, % of the Moon is Illuminated

Today's Extremes

State Highs State Lows

Community

WunderPhotos

Upload Photos

1,956,274 photos uploaded!

WunderBlog® & News

Nearby

Air Quality

  Air Quality AQ Index Pollutant
Not available.

Snow Depth

Station Depth Elevation

Earthquake Activity

City Distance Mag. Time & Date
Minimum magnitude displayed is 2.5.

Coastal Water Temperatures

Place Temperature

Stations

Nearby Weather Stations

Station Location Temp. Windchill Dew Point Humidity Wind Precip. Elev Updated Type
                   

Watches & Warnings

There are currently no watches in effect.